sensor_id;sensor_type;location;lat;lon;timestamp;temperature;humidity
14192;DHT22;7177;48.572;7.838;2024-01-30T00:02:24;3.20;99.90
14192;DHT22;7177;48.572;7.838;2024-01-30T00:04:51;3.20;99.90
14192;DHT22;7177;48.572;7.838;2024-01-30T00:07:17;3.20;99.90
14192;DHT22;7177;48.572;7.838;2024-01-30T00:09:42;3.20;99.90
14192;DHT22;7177;48.572;7.838;2024-01-30T00:12:08;3.20;99.90
14192;DHT22;7177;48.572;7.838;2024-01-30T00:14:33;3.20;99.90
14192;DHT22;7177;48.572;7.838;2024-01-30T00:17:11;3.20;99.90
14192;DHT22;7177;48.572;7.838;2024-01-30T00:19:37;3.20;99.90
14192;DHT22;7177;48.572;7.838;2024-01-30T00:22:09;3.20;99.90
14192;DHT22;7177;48.572;7.838;2024-01-30T00:24:37;3.20;99.90
14192;DHT22;7177;48.572;7.838;2024-01-30T00:27:03;3.20;99.90
14192;DHT22;7177;48.572;7.838;2024-01-30T00:29:28;3.20;99.90
14192;DHT22;7177;48.572;7.838;2024-01-30T00:31:56;3.10;99.90
14192;DHT22;7177;48.572;7.838;2024-01-30T00:34:22;3.10;99.90
14192;DHT22;7177;48.572;7.838;2024-01-30T00:36:47;3.00;99.90
14192;DHT22;7177;48.572;7.838;2024-01-30T00:39:13;3.00;99.90
14192;DHT22;7177;48.572;7.838;2024-01-30T00:41:41;3.00;99.90
14192;DHT22;7177;48.572;7.838;2024-01-30T00:44:07;3.00;99.90
14192;DHT22;7177;48.572;7.838;2024-01-30T00:46:33;3.00;99.90
14192;DHT22;7177;48.572;7.838;2024-01-30T00:48:58;3.00;99.90
14192;DHT22;7177;48.572;7.838;2024-01-30T00:51:24;2.90;99.90
14192;DHT22;7177;48.572;7.838;2024-01-30T00:53:49;2.80;99.90
14192;DHT22;7177;48.572;7.838;2024-01-30T00:56:15;2.80;99.90
14192;DHT22;7177;48.572;7.838;2024-01-30T00:58:43;2.70;99.90
14192;DHT22;7177;48.572;7.838;2024-01-30T01:01:09;2.70;99.90
14192;DHT22;7177;48.572;7.838;2024-01-30T01:03:34;2.70;99.90
14192;DHT22;7177;48.572;7.838;2024-01-30T01:06:00;2.70;99.90
14192;DHT22;7177;48.572;7.838;2024-01-30T01:08:25;2.70;99.90
14192;DHT22;7177;48.572;7.838;2024-01-30T01:10:52;2.60;99.90
14192;DHT22;7177;48.572;7.838;2024-01-30T01:13:23;2.60;99.90
14192;DHT22;7177;48.572;7.838;2024-01-30T01:15:49;2.60;99.90
14192;DHT22;7177;48.572;7.838;2024-01-30T01:18:14;2.60;99.90
14192;DHT22;7177;48.572;7.838;2024-01-30T01:20:40;2.50;99.90
14192;DHT22;7177;48.572;7.838;2024-01-30T01:23:06;2.50;99.90
14192;DHT22;7177;48.572;7.838;2024-01-30T01:25:34;2.40;99.90
14192;DHT22;7177;48.572;7.838;2024-01-30T01:28:00;2.40;99.90
14192;DHT22;7177;48.572;7.838;2024-01-30T01:30:27;2.40;99.90
14192;DHT22;7177;48.572;7.838;2024-01-30T01:32:54;2.40;99.90
14192;DHT22;7177;48.572;7.838;2024-01-30T01:35:26;2.40;99.90
14192;DHT22;7177;48.572;7.838;2024-01-30T01:37:53;2.50;99.90
14192;DHT22;7177;48.572;7.838;2024-01-30T01:40:27;2.50;99.90
14192;DHT22;7177;48.572;7.838;2024-01-30T01:42:54;2.40;99.90
14192;DHT22;7177;48.572;7.838;2024-01-30T01:45:40;2.40;99.90
14192;DHT22;7177;48.572;7.838;2024-01-30T01:48:06;2.40;99.90
14192;DHT22;7177;48.572;7.838;2024-01-30T01:50:33;2.40;99.90
14192;DHT22;7177;48.572;7.838;2024-01-30T01:52:59;2.40;99.90
14192;DHT22;7177;48.572;7.838;2024-01-30T01:55:25;2.40;99.90
14192;DHT22;7177;48.572;7.838;2024-01-30T01:57:53;2.40;99.90
14192;DHT22;7177;48.572;7.838;2024-01-30T02:00:20;2.40;99.90
14192;DHT22;7177;48.572;7.838;2024-01-30T02:02:46;2.40;99.90
14192;DHT22;7177;48.572;7.838;2024-01-30T02:05:12;2.40;99.90
14192;DHT22;7177;48.572;7.838;2024-01-30T02:07:38;2.40;99.90
14192;DHT22;7177;48.572;7.838;2024-01-30T02:10:04;2.40;99.90
14192;DHT22;7177;48.572;7.838;2024-01-30T02:12:30;2.40;99.90
14192;DHT22;7177;48.572;7.838;2024-01-30T02:14:55;2.40;99.90
14192;DHT22;7177;48.572;7.838;2024-01-30T02:17:21;2.40;99.90
14192;DHT22;7177;48.572;7.838;2024-01-30T02:19:48;2.40;99.90
14192;DHT22;7177;48.572;7.838;2024-01-30T02:22:14;2.40;99.90
14192;DHT22;7177;48.572;7.838;2024-01-30T02:24:40;2.30;99.90
14192;DHT22;7177;48.572;7.838;2024-01-30T02:27:05;2.20;99.90
14192;DHT22;7177;48.572;7.838;2024-01-30T02:29:31;2.20;99.90
14192;DHT22;7177;48.572;7.838;2024-01-30T02:31:57;2.10;99.90
14192;DHT22;7177;48.572;7.838;2024-01-30T02:34:23;2.10;99.90
14192;DHT22;7177;48.572;7.838;2024-01-30T02:36:49;2.00;99.90
14192;DHT22;7177;48.572;7.838;2024-01-30T02:39:14;2.00;99.90
14192;DHT22;7177;48.572;7.838;2024-01-30T02:41:40;1.90;99.90
14192;DHT22;7177;48.572;7.838;2024-01-30T02:44:05;1.90;99.90
14192;DHT22;7177;48.572;7.838;2024-01-30T02:46:31;1.90;99.90
14192;DHT22;7177;48.572;7.838;2024-01-30T02:48:56;1.90;99.90
14192;DHT22;7177;48.572;7.838;2024-01-30T02:51:22;1.80;99.90
14192;DHT22;7177;48.572;7.838;2024-01-30T02:53:48;1.90;99.90
14192;DHT22;7177;48.572;7.838;2024-01-30T02:56:13;1.90;99.90
14192;DHT22;7177;48.572;7.838;2024-01-30T02:58:40;1.90;99.90
14192;DHT22;7177;48.572;7.838;2024-01-30T03:01:06;1.90;99.90
14192;DHT22;7177;48.572;7.838;2024-01-30T03:03:32;1.90;99.90
14192;DHT22;7177;48.572;7.838;2024-01-30T03:05:59;1.90;99.90
14192;DHT22;7177;48.572;7.838;2024-01-30T03:08:26;1.90;99.90
14192;DHT22;7177;48.572;7.838;2024-01-30T03:10:51;2.00;99.90
14192;DHT22;7177;48.572;7.838;2024-01-30T03:13:17;2.00;99.90
14192;DHT22;7177;48.572;7.838;2024-01-30T03:15:42;2.00;99.90
14192;DHT22;7177;48.572;7.838;2024-01-30T03:18:08;1.90;99.90
14192;DHT22;7177;48.572;7.838;2024-01-30T03:20:34;1.90;99.90
14192;DHT22;7177;48.572;7.838;2024-01-30T03:23:00;1.80;99.90
14192;DHT22;7177;48.572;7.838;2024-01-30T03:25:26;1.80;99.90
14192;DHT22;7177;48.572;7.838;2024-01-30T03:27:51;1.80;99.90
14192;DHT22;7177;48.572;7.838;2024-01-30T03:30:17;1.80;99.90
14192;DHT22;7177;48.572;7.838;2024-01-30T03:32:43;1.80;99.90
14192;DHT22;7177;48.572;7.838;2024-01-30T03:35:09;1.80;99.90
14192;DHT22;7177;48.572;7.838;2024-01-30T03:37:35;1.80;99.90
14192;DHT22;7177;48.572;7.838;2024-01-30T03:40:01;1.80;99.90
14192;DHT22;7177;48.572;7.838;2024-01-30T03:42:27;1.70;99.90
14192;DHT22;7177;48.572;7.838;2024-01-30T03:44:53;1.70;99.90
14192;DHT22;7177;48.572;7.838;2024-01-30T03:47:20;1.80;99.90
14192;DHT22;7177;48.572;7.838;2024-01-30T03:49:46;1.80;99.90
14192;DHT22;7177;48.572;7.838;2024-01-30T03:52:11;1.80;99.90
14192;DHT22;7177;48.572;7.838;2024-01-30T03:54:37;1.80;99.90
14192;DHT22;7177;48.572;7.838;2024-01-30T03:57:03;1.80;99.90
14192;DHT22;7177;48.572;7.838;2024-01-30T03:59:29;1.90;99.90
14192;DHT22;7177;48.572;7.838;2024-01-30T04:01:54;1.80;99.90
14192;DHT22;7177;48.572;7.838;2024-01-30T04:04:20;1.80;99.90
14192;DHT22;7177;48.572;7.838;2024-01-30T04:06:46;1.80;99.90
14192;DHT22;7177;48.572;7.838;2024-01-30T04:09:12;1.80;99.90
14192;DHT22;7177;48.572;7.838;2024-01-30T04:11:39;1.70;99.90
14192;DHT22;7177;48.572;7.838;2024-01-30T04:14:05;1.80;99.90
14192;DHT22;7177;48.572;7.838;2024-01-30T04:16:30;1.80;99.90
14192;DHT22;7177;48.572;7.838;2024-01-30T04:18:56;1.80;99.90
14192;DHT22;7177;48.572;7.838;2024-01-30T04:21:22;1.90;99.90
14192;DHT22;7177;48.572;7.838;2024-01-30T04:23:48;1.90;99.90
14192;DHT22;7177;48.572;7.838;2024-01-30T04:26:16;1.90;99.90
14192;DHT22;7177;48.572;7.838;2024-01-30T04:28:43;2.00;99.90
14192;DHT22;7177;48.572;7.838;2024-01-30T04:31:09;2.00;99.90
14192;DHT22;7177;48.572;7.838;2024-01-30T04:33:35;2.00;99.90
14192;DHT22;7177;48.572;7.838;2024-01-30T04:36:01;1.90;99.90
14192;DHT22;7177;48.572;7.838;2024-01-30T04:38:27;1.90;99.90
14192;DHT22;7177;48.572;7.838;2024-01-30T04:40:52;1.80;99.90
14192;DHT22;7177;48.572;7.838;2024-01-30T04:43:18;1.80;99.90
14192;DHT22;7177;48.572;7.838;2024-01-30T04:45:44;1.80;99.90
14192;DHT22;7177;48.572;7.838;2024-01-30T04:48:10;1.80;99.90
14192;DHT22;7177;48.572;7.838;2024-01-30T04:50:35;1.80;99.90
14192;DHT22;7177;48.572;7.838;2024-01-30T04:53:01;1.80;99.90
14192;DHT22;7177;48.572;7.838;2024-01-30T04:55:27;1.80;99.90
14192;DHT22;7177;48.572;7.838;2024-01-30T04:57:52;1.80;99.90
14192;DHT22;7177;48.572;7.838;2024-01-30T05:00:18;1.80;99.90
14192;DHT22;7177;48.572;7.838;2024-01-30T05:02:44;1.80;99.90
14192;DHT22;7177;48.572;7.838;2024-01-30T05:05:09;1.80;99.90
14192;DHT22;7177;48.572;7.838;2024-01-30T05:07:35;1.80;99.90
14192;DHT22;7177;48.572;7.838;2024-01-30T05:12:28;1.80;99.90
14192;DHT22;7177;48.572;7.838;2024-01-30T05:14:54;1.80;99.90
14192;DHT22;7177;48.572;7.838;2024-01-30T05:17:19;1.80;99.90
14192;DHT22;7177;48.572;7.838;2024-01-30T05:19:45;2.30;99.90
14192;DHT22;7177;48.572;7.838;2024-01-30T05:22:11;2.50;99.90
14192;DHT22;7177;48.572;7.838;2024-01-30T05:24:41;2.60;99.90
14192;DHT22;7177;48.572;7.838;2024-01-30T05:27:07;2.70;99.90
14192;DHT22;7177;48.572;7.838;2024-01-30T05:29:32;2.60;99.90
14192;DHT22;7177;48.572;7.838;2024-01-30T05:31:58;2.40;99.90
14192;DHT22;7177;48.572;7.838;2024-01-30T05:34:24;2.30;99.90
14192;DHT22;7177;48.572;7.838;2024-01-30T05:36:49;2.30;99.90
14192;DHT22;7177;48.572;7.838;2024-01-30T05:39:15;2.20;99.90
14192;DHT22;7177;48.572;7.838;2024-01-30T05:41:40;2.10;99.90
14192;DHT22;7177;48.572;7.838;2024-01-30T05:44:06;2.10;99.90
14192;DHT22;7177;48.572;7.838;2024-01-30T05:46:31;2.10;99.90
14192;DHT22;7177;48.572;7.838;2024-01-30T05:48:57;2.10;99.90
14192;DHT22;7177;48.572;7.838;2024-01-30T05:51:23;2.10;99.90
14192;DHT22;7177;48.572;7.838;2024-01-30T05:53:48;2.10;99.90
14192;DHT22;7177;48.572;7.838;2024-01-30T05:56:14;2.10;99.90
14192;DHT22;7177;48.572;7.838;2024-01-30T05:58:40;2.10;99.90
14192;DHT22;7177;48.572;7.838;2024-01-30T06:01:09;2.10;99.90
14192;DHT22;7177;48.572;7.838;2024-01-30T06:03:35;2.20;99.90
14192;DHT22;7177;48.572;7.838;2024-01-30T06:06:01;2.20;99.90
14192;DHT22;7177;48.572;7.838;2024-01-30T06:08:26;2.20;99.90
14192;DHT22;7177;48.572;7.838;2024-01-30T06:10:52;2.10;99.90
14192;DHT22;7177;48.572;7.838;2024-01-30T06:13:17;2.20;99.90
14192;DHT22;7177;48.572;7.838;2024-01-30T06:15:43;2.10;99.90
14192;DHT22;7177;48.572;7.838;2024-01-30T06:18:09;2.10;99.90
14192;DHT22;7177;48.572;7.838;2024-01-30T06:20:34;2.20;99.90
14192;DHT22;7177;48.572;7.838;2024-01-30T06:23:00;2.20;99.90
14192;DHT22;7177;48.572;7.838;2024-01-30T06:25:26;2.30;99.90
14192;DHT22;7177;48.572;7.838;2024-01-30T06:27:51;2.30;99.90
14192;DHT22;7177;48.572;7.838;2024-01-30T06:30:18;2.40;99.90
14192;DHT22;7177;48.572;7.838;2024-01-30T06:32:43;2.40;99.90
14192;DHT22;7177;48.572;7.838;2024-01-30T06:35:09;2.50;99.90
14192;DHT22;7177;48.572;7.838;2024-01-30T06:37:36;2.50;99.90
14192;DHT22;7177;48.572;7.838;2024-01-30T06:40:01;2.50;99.90
14192;DHT22;7177;48.572;7.838;2024-01-30T06:42:27;2.50;99.90
14192;DHT22;7177;48.572;7.838;2024-01-30T06:44:53;2.50;99.90
14192;DHT22;7177;48.572;7.838;2024-01-30T06:47:18;2.50;99.90
14192;DHT22;7177;48.572;7.838;2024-01-30T06:49:44;2.50;99.90
14192;DHT22;7177;48.572;7.838;2024-01-30T06:52:10;2.60;99.90
14192;DHT22;7177;48.572;7.838;2024-01-30T06:54:36;2.60;99.90
14192;DHT22;7177;48.572;7.838;2024-01-30T06:57:02;2.70;99.90
14192;DHT22;7177;48.572;7.838;2024-01-30T06:59:27;2.60;99.90
14192;DHT22;7177;48.572;7.838;2024-01-30T07:01:53;2.70;99.90
14192;DHT22;7177;48.572;7.838;2024-01-30T07:04:19;2.70;99.90
14192;DHT22;7177;48.572;7.838;2024-01-30T07:06:44;2.70;99.90
14192;DHT22;7177;48.572;7.838;2024-01-30T07:09:10;2.70;99.90
14192;DHT22;7177;48.572;7.838;2024-01-30T07:11:36;2.70;99.90
14192;DHT22;7177;48.572;7.838;2024-01-30T07:14:01;2.70;99.90
14192;DHT22;7177;48.572;7.838;2024-01-30T07:16:30;2.70;99.90
14192;DHT22;7177;48.572;7.838;2024-01-30T07:18:55;2.70;99.90
14192;DHT22;7177;48.572;7.838;2024-01-30T07:21:22;2.80;99.90
14192;DHT22;7177;48.572;7.838;2024-01-30T07:23:53;2.90;99.90
14192;DHT22;7177;48.572;7.838;2024-01-30T07:26:19;3.00;99.90
14192;DHT22;7177;48.572;7.838;2024-01-30T07:28:44;3.00;99.90
14192;DHT22;7177;48.572;7.838;2024-01-30T07:31:10;3.10;99.90
14192;DHT22;7177;48.572;7.838;2024-01-30T07:33:35;3.10;99.90
14192;DHT22;7177;48.572;7.838;2024-01-30T07:36:01;3.20;99.90
14192;DHT22;7177;48.572;7.838;2024-01-30T07:38:26;3.20;99.90
14192;DHT22;7177;48.572;7.838;2024-01-30T07:40:52;3.30;99.90
14192;DHT22;7177;48.572;7.838;2024-01-30T07:43:18;3.30;99.90
14192;DHT22;7177;48.572;7.838;2024-01-30T07:45:45;3.40;99.90
14192;DHT22;7177;48.572;7.838;2024-01-30T07:48:10;3.40;99.90
14192;DHT22;7177;48.572;7.838;2024-01-30T07:50:36;3.40;99.90
14192;DHT22;7177;48.572;7.838;2024-01-30T07:53:02;3.50;99.90
14192;DHT22;7177;48.572;7.838;2024-01-30T07:55:27;3.60;99.90
14192;DHT22;7177;48.572;7.838;2024-01-30T07:57:54;3.70;99.90
14192;DHT22;7177;48.572;7.838;2024-01-30T08:00:21;3.80;99.90
14192;DHT22;7177;48.572;7.838;2024-01-30T08:02:47;3.80;99.90
14192;DHT22;7177;48.572;7.838;2024-01-30T08:05:12;3.90;99.90
14192;DHT22;7177;48.572;7.838;2024-01-30T08:07:43;4.00;99.90
14192;DHT22;7177;48.572;7.838;2024-01-30T08:10:10;4.10;99.90
14192;DHT22;7177;48.572;7.838;2024-01-30T08:12:36;4.10;99.90
14192;DHT22;7177;48.572;7.838;2024-01-30T08:15:02;4.10;99.90
14192;DHT22;7177;48.572;7.838;2024-01-30T08:17:28;4.20;99.90
14192;DHT22;7177;48.572;7.838;2024-01-30T08:19:54;4.20;99.90
14192;DHT22;7177;48.572;7.838;2024-01-30T08:22:19;4.20;99.90
14192;DHT22;7177;48.572;7.838;2024-01-30T08:24:45;4.20;99.90
14192;DHT22;7177;48.572;7.838;2024-01-30T08:27:11;4.20;99.90
14192;DHT22;7177;48.572;7.838;2024-01-30T08:29:37;4.20;99.90
14192;DHT22;7177;48.572;7.838;2024-01-30T08:32:05;4.20;99.90
14192;DHT22;7177;48.572;7.838;2024-01-30T08:34:30;4.20;99.90
14192;DHT22;7177;48.572;7.838;2024-01-30T08:36:56;4.40;99.90
14192;DHT22;7177;48.572;7.838;2024-01-30T08:39:21;4.60;99.90
14192;DHT22;7177;48.572;7.838;2024-01-30T08:41:47;4.60;99.90
14192;DHT22;7177;48.572;7.838;2024-01-30T08:44:12;4.60;99.90
14192;DHT22;7177;48.572;7.838;2024-01-30T08:46:38;4.70;99.90
14192;DHT22;7177;48.572;7.838;2024-01-30T08:49:03;4.80;99.90
14192;DHT22;7177;48.572;7.838;2024-01-30T08:51:33;4.70;99.90
14192;DHT22;7177;48.572;7.838;2024-01-30T08:53:59;4.60;99.90
14192;DHT22;7177;48.572;7.838;2024-01-30T08:56:25;4.50;99.90
14192;DHT22;7177;48.572;7.838;2024-01-30T08:58:51;4.50;99.90
14192;DHT22;7177;48.572;7.838;2024-01-30T09:01:16;4.50;99.90
14192;DHT22;7177;48.572;7.838;2024-01-30T09:03:42;4.50;99.90
14192;DHT22;7177;48.572;7.838;2024-01-30T09:06:09;4.50;99.90
14192;DHT22;7177;48.572;7.838;2024-01-30T09:08:35;4.50;99.90
14192;DHT22;7177;48.572;7.838;2024-01-30T09:11:01;4.60;99.90
14192;DHT22;7177;48.572;7.838;2024-01-30T09:13:26;4.70;99.90
14192;DHT22;7177;48.572;7.838;2024-01-30T09:15:52;4.80;99.90
14192;DHT22;7177;48.572;7.838;2024-01-30T09:18:18;4.90;99.90
14192;DHT22;7177;48.572;7.838;2024-01-30T09:20:44;5.70;99.90
14192;DHT22;7177;48.572;7.838;2024-01-30T09:23:12;6.70;99.90
14192;DHT22;7177;48.572;7.838;2024-01-30T09:25:38;6.80;99.90
14192;DHT22;7177;48.572;7.838;2024-01-30T09:28:04;6.90;99.90
14192;DHT22;7177;48.572;7.838;2024-01-30T09:30:30;6.70;99.90
14192;DHT22;7177;48.572;7.838;2024-01-30T09:32:55;6.60;99.90
14192;DHT22;7177;48.572;7.838;2024-01-30T09:35:21;6.50;99.90
14192;DHT22;7177;48.572;7.838;2024-01-30T09:37:46;6.40;99.90
14192;DHT22;7177;48.572;7.838;2024-01-30T09:40:13;6.30;99.90
14192;DHT22;7177;48.572;7.838;2024-01-30T09:42:40;6.10;99.90
14192;DHT22;7177;48.572;7.838;2024-01-30T09:45:09;6.00;99.90
14192;DHT22;7177;48.572;7.838;2024-01-30T09:47:41;6.00;99.90
14192;DHT22;7177;48.572;7.838;2024-01-30T09:50:09;6.00;99.90
14192;DHT22;7177;48.572;7.838;2024-01-30T09:52:35;6.20;99.90
14192;DHT22;7177;48.572;7.838;2024-01-30T09:55:01;6.10;99.90
14192;DHT22;7177;48.572;7.838;2024-01-30T09:57:26;6.20;99.90
14192;DHT22;7177;48.572;7.838;2024-01-30T09:59:52;6.20;99.90
14192;DHT22;7177;48.572;7.838;2024-01-30T10:02:20;6.30;99.90
14192;DHT22;7177;48.572;7.838;2024-01-30T10:04:48;6.30;99.90
14192;DHT22;7177;48.572;7.838;2024-01-30T10:07:15;6.40;99.90
14192;DHT22;7177;48.572;7.838;2024-01-30T10:09:41;6.50;99.90
14192;DHT22;7177;48.572;7.838;2024-01-30T10:12:07;6.60;99.90
14192;DHT22;7177;48.572;7.838;2024-01-30T10:14:33;6.70;99.90
14192;DHT22;7177;48.572;7.838;2024-01-30T10:16:58;6.80;99.90
14192;DHT22;7177;48.572;7.838;2024-01-30T10:19:24;6.90;99.90
14192;DHT22;7177;48.572;7.838;2024-01-30T10:21:50;7.00;99.90
14192;DHT22;7177;48.572;7.838;2024-01-30T10:24:15;7.10;99.90
14192;DHT22;7177;48.572;7.838;2024-01-30T10:26:44;7.10;99.90
14192;DHT22;7177;48.572;7.838;2024-01-30T10:29:09;7.20;99.90
14192;DHT22;7177;48.572;7.838;2024-01-30T10:31:35;7.30;99.90
14192;DHT22;7177;48.572;7.838;2024-01-30T10:34:00;7.40;99.90
14192;DHT22;7177;48.572;7.838;2024-01-30T10:36:28;7.50;99.90
14192;DHT22;7177;48.572;7.838;2024-01-30T10:38:59;7.70;99.90
14192;DHT22;7177;48.572;7.838;2024-01-30T10:41:27;7.90;99.90
14192;DHT22;7177;48.572;7.838;2024-01-30T10:44:03;8.20;99.90
14192;DHT22;7177;48.572;7.838;2024-01-30T10:46:33;8.50;99.90
14192;DHT22;7177;48.572;7.838;2024-01-30T10:49:01;8.80;99.90
14192;DHT22;7177;48.572;7.838;2024-01-30T10:51:27;8.90;99.90
14192;DHT22;7177;48.572;7.838;2024-01-30T10:53:53;9.00;99.90
14192;DHT22;7177;48.572;7.838;2024-01-30T10:56:21;9.00;99.90
14192;DHT22;7177;48.572;7.838;2024-01-30T10:58:49;9.10;99.90
14192;DHT22;7177;48.572;7.838;2024-01-30T11:01:15;9.30;99.90
14192;DHT22;7177;48.572;7.838;2024-01-30T11:03:41;9.50;99.90
14192;DHT22;7177;48.572;7.838;2024-01-30T11:06:11;9.60;99.90
14192;DHT22;7177;48.572;7.838;2024-01-30T11:08:37;9.80;99.90
14192;DHT22;7177;48.572;7.838;2024-01-30T11:11:09;10.00;99.90
14192;DHT22;7177;48.572;7.838;2024-01-30T11:13:34;10.20;99.90
14192;DHT22;7177;48.572;7.838;2024-01-30T11:16:04;10.20;99.90
14192;DHT22;7177;48.572;7.838;2024-01-30T11:18:35;10.50;99.90
14192;DHT22;7177;48.572;7.838;2024-01-30T11:21:01;10.70;99.90
14192;DHT22;7177;48.572;7.838;2024-01-30T11:23:32;10.60;99.90
14192;DHT22;7177;48.572;7.838;2024-01-30T11:25:58;10.60;99.90
14192;DHT22;7177;48.572;7.838;2024-01-30T11:28:24;10.60;99.90
14192;DHT22;7177;48.572;7.838;2024-01-30T11:31:03;10.50;99.90
14192;DHT22;7177;48.572;7.838;2024-01-30T11:33:29;10.60;99.90
14192;DHT22;7177;48.572;7.838;2024-01-30T11:35:57;10.60;99.90
14192;DHT22;7177;48.572;7.838;2024-01-30T11:38:26;10.70;99.90
14192;DHT22;7177;48.572;7.838;2024-01-30T11:40:54;10.80;99.90
14192;DHT22;7177;48.572;7.838;2024-01-30T11:43:20;11.00;99.90
14192;DHT22;7177;48.572;7.838;2024-01-30T11:45:45;11.30;99.90
14192;DHT22;7177;48.572;7.838;2024-01-30T11:48:12;11.20;99.90
14192;DHT22;7177;48.572;7.838;2024-01-30T11:50:39;11.10;99.90
14192;DHT22;7177;48.572;7.838;2024-01-30T11:53:05;11.10;99.90
14192;DHT22;7177;48.572;7.838;2024-01-30T11:55:31;11.00;99.90
14192;DHT22;7177;48.572;7.838;2024-01-30T11:57:57;11.10;99.90
14192;DHT22;7177;48.572;7.838;2024-01-30T12:00:23;11.20;99.90
14192;DHT22;7177;48.572;7.838;2024-01-30T12:02:53;11.20;99.90
14192;DHT22;7177;48.572;7.838;2024-01-30T12:05:23;11.30;99.90
14192;DHT22;7177;48.572;7.838;2024-01-30T12:07:48;11.40;99.90
14192;DHT22;7177;48.572;7.838;2024-01-30T12:10:14;11.60;99.90
14192;DHT22;7177;48.572;7.838;2024-01-30T12:12:42;12.00;99.90
14192;DHT22;7177;48.572;7.838;2024-01-30T12:15:08;12.30;99.90
14192;DHT22;7177;48.572;7.838;2024-01-30T12:17:35;12.30;99.90
14192;DHT22;7177;48.572;7.838;2024-01-30T12:20:09;12.40;99.90
14192;DHT22;7177;48.572;7.838;2024-01-30T12:25:05;12.60;99.90
14192;DHT22;7177;48.572;7.838;2024-01-30T12:27:32;12.70;99.90
14192;DHT22;7177;48.572;7.838;2024-01-30T12:29:58;12.80;99.90
14192;DHT22;7177;48.572;7.838;2024-01-30T12:32:24;12.90;99.90
14192;DHT22;7177;48.572;7.838;2024-01-30T12:34:49;12.80;99.90
14192;DHT22;7177;48.572;7.838;2024-01-30T12:37:15;12.60;99.90
14192;DHT22;7177;48.572;7.838;2024-01-30T12:39:45;12.50;99.90
14192;DHT22;7177;48.572;7.838;2024-01-30T12:42:11;12.40;99.90
14192;DHT22;7177;48.572;7.838;2024-01-30T12:44:36;12.40;99.90
14192;DHT22;7177;48.572;7.838;2024-01-30T12:47:05;12.30;99.90
14192;DHT22;7177;48.572;7.838;2024-01-30T12:49:31;12.20;99.90
14192;DHT22;7177;48.572;7.838;2024-01-30T12:51:56;12.20;99.90
14192;DHT22;7177;48.572;7.838;2024-01-30T12:54:23;12.20;99.90
14192;DHT22;7177;48.572;7.838;2024-01-30T12:56:48;12.30;99.90
14192;DHT22;7177;48.572;7.838;2024-01-30T12:59:14;12.40;99.90
14192;DHT22;7177;48.572;7.838;2024-01-30T13:01:39;12.60;99.90
14192;DHT22;7177;48.572;7.838;2024-01-30T13:04:05;12.60;99.90
14192;DHT22;7177;48.572;7.838;2024-01-30T13:06:31;12.70;99.90
14192;DHT22;7177;48.572;7.838;2024-01-30T13:08:56;12.80;99.90
14192;DHT22;7177;48.572;7.838;2024-01-30T13:11:22;12.90;99.90
14192;DHT22;7177;48.572;7.838;2024-01-30T13:13:47;12.90;99.90
14192;DHT22;7177;48.572;7.838;2024-01-30T13:16:13;12.80;99.90
14192;DHT22;7177;48.572;7.838;2024-01-30T13:18:38;12.80;99.90
14192;DHT22;7177;48.572;7.838;2024-01-30T13:21:04;12.70;99.90
14192;DHT22;7177;48.572;7.838;2024-01-30T13:23:29;12.60;99.90
14192;DHT22;7177;48.572;7.838;2024-01-30T13:25:55;12.60;99.90
14192;DHT22;7177;48.572;7.838;2024-01-30T13:28:23;12.60;99.90
14192;DHT22;7177;48.572;7.838;2024-01-30T13:30:49;12.50;99.90
14192;DHT22;7177;48.572;7.838;2024-01-30T13:33:14;12.50;99.90
14192;DHT22;7177;48.572;7.838;2024-01-30T13:35:40;12.50;99.90
14192;DHT22;7177;48.572;7.838;2024-01-30T13:38:05;12.50;99.90
14192;DHT22;7177;48.572;7.838;2024-01-30T13:40:31;12.50;99.90
14192;DHT22;7177;48.572;7.838;2024-01-30T13:42:56;12.40;99.90
14192;DHT22;7177;48.572;7.838;2024-01-30T13:45:22;12.30;99.90
14192;DHT22;7177;48.572;7.838;2024-01-30T13:47:47;12.20;99.90
14192;DHT22;7177;48.572;7.838;2024-01-30T13:50:13;12.00;99.90
14192;DHT22;7177;48.572;7.838;2024-01-30T13:52:41;11.90;99.90
14192;DHT22;7177;48.572;7.838;2024-01-30T13:55:06;11.90;99.90
14192;DHT22;7177;48.572;7.838;2024-01-30T13:57:32;11.90;99.90
14192;DHT22;7177;48.572;7.838;2024-01-30T14:00:01;11.80;99.90
14192;DHT22;7177;48.572;7.838;2024-01-30T14:02:28;11.80;99.90
14192;DHT22;7177;48.572;7.838;2024-01-30T14:04:54;11.80;99.90
14192;DHT22;7177;48.572;7.838;2024-01-30T14:07:19;11.80;99.90
14192;DHT22;7177;48.572;7.838;2024-01-30T14:09:45;11.80;99.90
14192;DHT22;7177;48.572;7.838;2024-01-30T14:12:10;11.80;99.90
14192;DHT22;7177;48.572;7.838;2024-01-30T14:14:36;11.80;99.90
14192;DHT22;7177;48.572;7.838;2024-01-30T14:17:03;11.80;99.90
14192;DHT22;7177;48.572;7.838;2024-01-30T14:19:28;11.80;99.90
14192;DHT22;7177;48.572;7.838;2024-01-30T14:21:54;11.80;99.90
14192;DHT22;7177;48.572;7.838;2024-01-30T14:24:19;11.80;99.90
14192;DHT22;7177;48.572;7.838;2024-01-30T14:26:48;11.80;99.90
14192;DHT22;7177;48.572;7.838;2024-01-30T14:29:14;11.80;99.90
14192;DHT22;7177;48.572;7.838;2024-01-30T14:31:43;11.80;99.90
14192;DHT22;7177;48.572;7.838;2024-01-30T14:34:08;11.80;99.90
14192;DHT22;7177;48.572;7.838;2024-01-30T14:36:37;11.80;99.90
14192;DHT22;7177;48.572;7.838;2024-01-30T14:39:02;11.90;99.90
14192;DHT22;7177;48.572;7.838;2024-01-30T14:41:29;11.80;99.90
14192;DHT22;7177;48.572;7.838;2024-01-30T14:43:55;11.70;99.90
14192;DHT22;7177;48.572;7.838;2024-01-30T14:46:21;11.70;99.90
14192;DHT22;7177;48.572;7.838;2024-01-30T14:48:47;11.70;99.90
14192;DHT22;7177;48.572;7.838;2024-01-30T14:51:13;11.70;99.90
14192;DHT22;7177;48.572;7.838;2024-01-30T14:53:39;11.70;99.90
14192;DHT22;7177;48.572;7.838;2024-01-30T14:56:05;11.70;99.90
14192;DHT22;7177;48.572;7.838;2024-01-30T14:58:31;11.60;99.90
14192;DHT22;7177;48.572;7.838;2024-01-30T15:00:57;11.60;99.90
14192;DHT22;7177;48.572;7.838;2024-01-30T15:03:22;11.50;99.90
14192;DHT22;7177;48.572;7.838;2024-01-30T15:05:48;11.50;99.90
14192;DHT22;7177;48.572;7.838;2024-01-30T15:08:14;11.60;99.90
14192;DHT22;7177;48.572;7.838;2024-01-30T15:10:39;11.50;99.90
14192;DHT22;7177;48.572;7.838;2024-01-30T15:13:05;11.50;99.90
14192;DHT22;7177;48.572;7.838;2024-01-30T15:15:30;11.50;99.90
14192;DHT22;7177;48.572;7.838;2024-01-30T15:17:56;11.40;99.90
14192;DHT22;7177;48.572;7.838;2024-01-30T15:20:23;11.40;99.90
14192;DHT22;7177;48.572;7.838;2024-01-30T15:22:48;11.40;99.90
14192;DHT22;7177;48.572;7.838;2024-01-30T15:25:14;11.40;99.90
14192;DHT22;7177;48.572;7.838;2024-01-30T15:27:40;11.30;99.90
14192;DHT22;7177;48.572;7.838;2024-01-30T15:30:06;11.30;99.90
14192;DHT22;7177;48.572;7.838;2024-01-30T15:32:41;11.30;99.90
14192;DHT22;7177;48.572;7.838;2024-01-30T15:35:07;11.30;99.90
14192;DHT22;7177;48.572;7.838;2024-01-30T15:37:33;11.20;99.90
14192;DHT22;7177;48.572;7.838;2024-01-30T15:39:59;11.20;99.90
14192;DHT22;7177;48.572;7.838;2024-01-30T15:42:24;11.20;99.90
14192;DHT22;7177;48.572;7.838;2024-01-30T15:44:50;11.20;99.90
14192;DHT22;7177;48.572;7.838;2024-01-30T15:47:15;11.10;99.90
14192;DHT22;7177;48.572;7.838;2024-01-30T15:49:41;11.10;99.90
14192;DHT22;7177;48.572;7.838;2024-01-30T15:52:06;11.10;99.90
14192;DHT22;7177;48.572;7.838;2024-01-30T15:54:38;11.10;99.90
14192;DHT22;7177;48.572;7.838;2024-01-30T15:57:03;11.00;99.90